sensor_id;sensor_type;location;lat;lon;timestamp;pressure;altitude;pressure_sealevel;temperature;humidity
15750;BME280;7976;52.526;13.326;2023-03-05T00:00:51;101039.50;;;4.74;76.22
15750;BME280;7976;52.526;13.326;2023-03-05T00:03:18;101031.84;;;4.65;77.27
15750;BME280;7976;52.526;13.326;2023-03-05T00:05:45;101037.91;;;4.61;77.88
15750;BME280;7976;52.526;13.326;2023-03-05T00:08:13;101031.84;;;4.62;78.57
15750;BME280;7976;52.526;13.326;2023-03-05T00:10:40;101025.81;;;4.63;78.91
15750;BME280;7976;52.526;13.326;2023-03-05T00:13:07;101027.59;;;4.57;79.40
15750;BME280;7976;52.526;13.326;2023-03-05T00:15:39;101021.59;;;4.52;80.15
15750;BME280;7976;52.526;13.326;2023-03-05T00:18:07;101015.56;;;4.48;80.96
15750;BME280;7976;52.526;13.326;2023-03-05T00:20:34;101015.59;;;4.45;81.53
15750;BME280;7976;52.526;13.326;2023-03-05T00:23:01;101009.59;;;4.40;81.91
15750;BME280;7976;52.526;13.326;2023-03-05T00:25:29;101004.47;;;4.31;82.53
15750;BME280;7976;52.526;13.326;2023-03-05T00:27:56;100998.50;;;4.23;83.06
15750;BME280;7976;52.526;13.326;2023-03-05T00:30:23;100995.94;;;4.16;83.80
15750;BME280;7976;52.526;13.326;2023-03-05T00:32:51;100997.69;;;4.12;84.32
15750;BME280;7976;52.526;13.326;2023-03-05T00:35:18;100989.09;;;4.10;85.00
15750;BME280;7976;52.526;13.326;2023-03-05T00:37:46;100985.66;;;4.08;84.96
15750;BME280;7976;52.526;13.326;2023-03-05T00:40:13;100977.03;;;4.06;85.41
15750;BME280;7976;52.526;13.326;2023-03-05T00:42:41;100980.50;;;4.04;85.53
15750;BME280;7976;52.526;13.326;2023-03-05T00:45:10;100976.25;;;3.98;85.66
15750;BME280;7976;52.526;13.326;2023-03-05T00:47:38;100975.41;;;3.93;85.90
15750;BME280;7976;52.526;13.326;2023-03-05T00:50:07;100971.94;;;3.94;86.13
15750;BME280;7976;52.526;13.326;2023-03-05T00:52:34;100969.31;;;3.97;86.34
15750;BME280;7976;52.526;13.326;2023-03-05T00:55:02;100967.66;;;3.93;86.18
15750;BME280;7976;52.526;13.326;2023-03-05T00:57:29;100964.25;;;3.83;85.79
15750;BME280;7976;52.526;13.326;2023-03-05T00:59:57;100968.59;;;3.77;85.71
15750;BME280;7976;52.526;13.326;2023-03-05T01:02:24;100952.22;;;3.79;85.85
15750;BME280;7976;52.526;13.326;2023-03-05T01:04:51;100950.47;;;3.81;85.25
15750;BME280;7976;52.526;13.326;2023-03-05T01:07:18;100950.47;;;3.83;85.18
15750;BME280;7976;52.526;13.326;2023-03-05T01:09:45;100953.06;;;3.83;84.79
15750;BME280;7976;52.526;13.326;2023-03-05T01:12:12;100946.16;;;3.85;84.36
15750;BME280;7976;52.526;13.326;2023-03-05T01:14:39;100947.84;;;3.86;83.85
15750;BME280;7976;52.526;13.326;2023-03-05T01:17:07;100939.22;;;3.84;83.56
15750;BME280;7976;52.526;13.326;2023-03-05T01:19:34;100944.41;;;3.85;83.00
15750;BME280;7976;52.526;13.326;2023-03-05T01:22:01;100934.94;;;3.84;82.63
15750;BME280;7976;52.526;13.326;2023-03-05T01:24:29;100933.19;;;3.87;82.41
15750;BME280;7976;52.526;13.326;2023-03-05T01:26:56;100940.06;;;3.89;81.81
15750;BME280;7976;52.526;13.326;2023-03-05T01:29:24;100939.19;;;3.93;81.45
15750;BME280;7976;52.526;13.326;2023-03-05T01:31:51;100931.44;;;3.92;80.48
15750;BME280;7976;52.526;13.326;2023-03-05T01:34:19;100926.25;;;3.92;79.86
15750;BME280;7976;52.526;13.326;2023-03-05T01:36:46;100924.50;;;3.91;78.96
15750;BME280;7976;52.526;13.326;2023-03-05T01:39:14;100928.84;;;3.90;78.40
15750;BME280;7976;52.526;13.326;2023-03-05T01:41:41;100923.69;;;3.90;77.46
15750;BME280;7976;52.526;13.326;2023-03-05T01:44:21;100922.84;;;3.87;76.63
15750;BME280;7976;52.526;13.326;2023-03-05T01:46:49;100922.84;;;3.82;76.10
15750;BME280;7976;52.526;13.326;2023-03-05T01:49:22;100923.72;;;3.81;75.78
15750;BME280;7976;52.526;13.326;2023-03-05T01:52:06;100925.44;;;3.82;75.19
15750;BME280;7976;52.526;13.326;2023-03-05T01:54:38;100924.63;;;3.80;74.56
15750;BME280;7976;52.526;13.326;2023-03-05T01:57:11;100916.84;;;3.77;74.32
15750;BME280;7976;52.526;13.326;2023-03-05T01:59:43;100918.63;;;3.75;73.85
15750;BME280;7976;52.526;13.326;2023-03-05T02:02:12;100910.00;;;3.73;73.44
15750;BME280;7976;52.526;13.326;2023-03-05T02:04:45;100913.41;;;3.73;73.01
15750;BME280;7976;52.526;13.326;2023-03-05T02:07:16;100910.84;;;3.72;72.86
15750;BME280;7976;52.526;13.326;2023-03-05T02:09:43;100910.84;;;3.70;72.35
15750;BME280;7976;52.526;13.326;2023-03-05T02:12:12;100914.34;;;3.69;72.13
15750;BME280;7976;52.526;13.326;2023-03-05T02:14:44;100911.69;;;3.74;71.96
15750;BME280;7976;52.526;13.326;2023-03-05T02:17:12;100900.50;;;3.76;71.55
15750;BME280;7976;52.526;13.326;2023-03-05T02:19:49;100899.63;;;3.76;71.20
15750;BME280;7976;52.526;13.326;2023-03-05T02:22:21;100898.78;;;3.71;71.11
15750;BME280;7976;52.526;13.326;2023-03-05T02:24:48;100897.94;;;3.69;70.70
15750;BME280;7976;52.526;13.326;2023-03-05T02:27:15;100885.91;;;3.65;70.19
15750;BME280;7976;52.526;13.326;2023-03-05T02:29:45;100880.75;;;3.62;70.04
15750;BME280;7976;52.526;13.326;2023-03-05T02:32:12;100885.94;;;3.59;69.70
15750;BME280;7976;52.526;13.326;2023-03-05T02:34:39;100881.66;;;3.56;69.49
15750;BME280;7976;52.526;13.326;2023-03-05T02:37:07;100881.66;;;3.52;69.42
15750;BME280;7976;52.526;13.326;2023-03-05T02:39:37;100878.22;;;3.53;69.24
15750;BME280;7976;52.526;13.326;2023-03-05T02:42:04;100868.75;;;3.49;69.23
15750;BME280;7976;52.526;13.326;2023-03-05T02:44:32;100875.69;;;3.50;69.23
15750;BME280;7976;52.526;13.326;2023-03-05T02:46:59;100868.72;;;3.52;69.20
15750;BME280;7976;52.526;13.326;2023-03-05T02:49:27;100858.38;;;3.52;69.12
15750;BME280;7976;52.526;13.326;2023-03-05T02:51:54;100861.00;;;3.49;69.16
15750;BME280;7976;52.526;13.326;2023-03-05T02:54:21;100859.28;;;3.49;68.92
15750;BME280;7976;52.526;13.326;2023-03-05T02:56:49;100854.09;;;3.52;69.27
15750;BME280;7976;52.526;13.326;2023-03-05T02:59:16;100860.97;;;3.56;69.22
15750;BME280;7976;52.526;13.326;2023-03-05T03:01:43;100859.22;;;3.55;69.00
15750;BME280;7976;52.526;13.326;2023-03-05T03:04:10;100851.50;;;3.54;69.20
15750;BME280;7976;52.526;13.326;2023-03-05T03:06:37;100847.19;;;3.54;68.94
15750;BME280;7976;52.526;13.326;2023-03-05T03:09:04;100845.47;;;3.55;69.11
15750;BME280;7976;52.526;13.326;2023-03-05T03:11:31;100853.22;;;3.55;69.24
15750;BME280;7976;52.526;13.326;2023-03-05T03:13:59;100847.19;;;3.54;69.20
15750;BME280;7976;52.526;13.326;2023-03-05T03:16:27;100844.59;;;3.53;69.38
15750;BME280;7976;52.526;13.326;2023-03-05T03:18:54;100846.31;;;3.54;69.78
15750;BME280;7976;52.526;13.326;2023-03-05T03:21:24;100840.28;;;3.53;69.65
15750;BME280;7976;52.526;13.326;2023-03-05T03:23:51;100848.91;;;3.54;69.73
15750;BME280;7976;52.526;13.326;2023-03-05T03:26:18;100835.13;;;3.52;69.59
15750;BME280;7976;52.526;13.326;2023-03-05T03:28:45;100826.50;;;3.53;69.55
15750;BME280;7976;52.526;13.326;2023-03-05T03:31:14;100823.03;;;3.54;69.67
15750;BME280;7976;52.526;13.326;2023-03-05T03:33:41;100835.09;;;3.56;69.77
15750;BME280;7976;52.526;13.326;2023-03-05T03:36:09;100827.34;;;3.55;69.61
15750;BME280;7976;52.526;13.326;2023-03-05T03:38:36;100825.66;;;3.51;69.54
15750;BME280;7976;52.526;13.326;2023-03-05T03:41:05;100822.22;;;3.49;69.73
15750;BME280;7976;52.526;13.326;2023-03-05T03:43:33;100823.09;;;3.49;69.82
15750;BME280;7976;52.526;13.326;2023-03-05T03:46:00;100821.34;;;3.51;70.12
15750;BME280;7976;52.526;13.326;2023-03-05T03:48:30;100818.75;;;3.51;69.93
15750;BME280;7976;52.526;13.326;2023-03-05T03:50:57;100811.03;;;3.50;70.11
15750;BME280;7976;52.526;13.326;2023-03-05T03:53:23;100815.34;;;3.48;70.09
15750;BME280;7976;52.526;13.326;2023-03-05T03:55:59;100801.59;;;3.43;70.45
15750;BME280;7976;52.526;13.326;2023-03-05T03:58:26;100800.75;;;3.38;70.66
15750;BME280;7976;52.526;13.326;2023-03-05T04:00:56;100800.75;;;3.39;71.00
15750;BME280;7976;52.526;13.326;2023-03-05T04:03:22;100809.38;;;3.37;71.09
15750;BME280;7976;52.526;13.326;2023-03-05T04:05:51;100796.47;;;3.34;71.41
15750;BME280;7976;52.526;13.326;2023-03-05T04:08:18;100791.34;;;3.29;71.42
15750;BME280;7976;52.526;13.326;2023-03-05T04:10:44;100796.56;;;3.25;71.83
15750;BME280;7976;52.526;13.326;2023-03-05T04:13:11;100786.22;;;3.20;71.96
15750;BME280;7976;52.526;13.326;2023-03-05T04:15:38;100792.28;;;3.16;71.96
15750;BME280;7976;52.526;13.326;2023-03-05T04:18:05;100793.19;;;3.11;72.48
15750;BME280;7976;52.526;13.326;2023-03-05T04:20:32;100788.00;;;3.11;72.61
15750;BME280;7976;52.526;13.326;2023-03-05T04:23:00;100791.47;;;3.10;72.81
15750;BME280;7976;52.526;13.326;2023-03-05T04:25:27;100779.41;;;3.07;73.00
15750;BME280;7976;52.526;13.326;2023-03-05T04:27:54;100781.13;;;3.07;73.38
15750;BME280;7976;52.526;13.326;2023-03-05T04:30:21;100781.13;;;3.07;73.31
15750;BME280;7976;52.526;13.326;2023-03-05T04:32:48;100780.31;;;3.06;73.60
15750;BME280;7976;52.526;13.326;2023-03-05T04:35:15;100774.28;;;3.06;73.66
15750;BME280;7976;52.526;13.326;2023-03-05T04:37:41;100768.28;;;3.01;73.78
15750;BME280;7976;52.526;13.326;2023-03-05T04:40:11;100766.56;;;2.97;74.23
15750;BME280;7976;52.526;13.326;2023-03-05T04:42:38;100768.31;;;2.96;74.38
15750;BME280;7976;52.526;13.326;2023-03-05T04:45:06;100763.13;;;2.96;74.71
15750;BME280;7976;52.526;13.326;2023-03-05T04:47:34;100769.19;;;2.91;74.67
15750;BME280;7976;52.526;13.326;2023-03-05T04:50:01;100760.63;;;2.84;74.98
15750;BME280;7976;52.526;13.326;2023-03-05T04:52:29;100758.06;;;2.81;75.07
15750;BME280;7976;52.526;13.326;2023-03-05T04:54:56;100764.06;;;2.80;75.41
15750;BME280;7976;52.526;13.326;2023-03-05T04:57:24;100765.81;;;2.80;75.56
15750;BME280;7976;52.526;13.326;2023-03-05T04:59:51;100754.63;;;2.79;75.69
15750;BME280;7976;52.526;13.326;2023-03-05T05:02:18;100754.66;;;2.75;75.76
15750;BME280;7976;52.526;13.326;2023-03-05T05:04:45;100758.06;;;2.80;76.05
15750;BME280;7976;52.526;13.326;2023-03-05T05:07:11;100765.81;;;2.80;76.23
15750;BME280;7976;52.526;13.326;2023-03-05T05:09:38;100760.66;;;2.80;76.51
15750;BME280;7976;52.526;13.326;2023-03-05T05:12:07;100755.47;;;2.78;76.31
15750;BME280;7976;52.526;13.326;2023-03-05T05:14:36;100759.81;;;2.76;76.62
15750;BME280;7976;52.526;13.326;2023-03-05T05:17:04;100758.94;;;2.76;76.69
15750;BME280;7976;52.526;13.326;2023-03-05T05:19:31;100753.78;;;2.74;76.92
15750;BME280;7976;52.526;13.326;2023-03-05T05:21:58;100757.22;;;2.72;77.24
15750;BME280;7976;52.526;13.326;2023-03-05T05:24:24;100761.56;;;2.73;77.33
15750;BME280;7976;52.526;13.326;2023-03-05T05:26:53;100764.13;;;2.74;77.50
15750;BME280;7976;52.526;13.326;2023-03-05T05:29:21;100764.13;;;2.76;77.50
15750;BME280;7976;52.526;13.326;2023-03-05T05:31:49;100760.66;;;2.77;77.42
15750;BME280;7976;52.526;13.326;2023-03-05T05:34:17;100752.06;;;2.78;77.52
15750;BME280;7976;52.526;13.326;2023-03-05T05:36:44;100758.06;;;2.77;77.59
15750;BME280;7976;52.526;13.326;2023-03-05T05:39:11;100756.34;;;2.77;77.89
15750;BME280;7976;52.526;13.326;2023-03-05T05:41:38;100752.91;;;2.75;77.85
15750;BME280;7976;52.526;13.326;2023-03-05T05:44:05;100755.50;;;2.74;78.06
15750;BME280;7976;52.526;13.326;2023-03-05T05:46:31;100752.06;;;2.72;78.08
15750;BME280;7976;52.526;13.326;2023-03-05T05:49:00;100759.81;;;2.70;78.37
15750;BME280;7976;52.526;13.326;2023-03-05T05:51:27;100755.53;;;2.69;78.56
15750;BME280;7976;52.526;13.326;2023-03-05T05:53:53;100771.03;;;2.71;78.80
15750;BME280;7976;52.526;13.326;2023-03-05T05:56:20;100764.16;;;2.70;78.82
15750;BME280;7976;52.526;13.326;2023-03-05T05:58:48;100758.09;;;2.74;78.94
15750;BME280;7976;52.526;13.326;2023-03-05T06:01:19;100764.97;;;2.76;78.95
15750;BME280;7976;52.526;13.326;2023-03-05T06:03:48;100759.81;;;2.78;79.31
15750;BME280;7976;52.526;13.326;2023-03-05T06:06:19;100764.94;;;2.82;79.39
15750;BME280;7976;52.526;13.326;2023-03-05T06:08:47;100769.22;;;2.88;79.16
15750;BME280;7976;52.526;13.326;2023-03-05T06:11:14;100761.44;;;2.91;79.14
15750;BME280;7976;52.526;13.326;2023-03-05T06:13:41;100757.97;;;2.93;78.84
15750;BME280;7976;52.526;13.326;2023-03-05T06:16:12;100753.66;;;2.94;78.90
15750;BME280;7976;52.526;13.326;2023-03-05T06:18:40;100753.66;;;2.95;79.09
15750;BME280;7976;52.526;13.326;2023-03-05T06:21:10;100751.91;;;2.99;79.20
15750;BME280;7976;52.526;13.326;2023-03-05T06:23:40;100735.53;;;3.04;78.96
15750;BME280;7976;52.526;13.326;2023-03-05T06:26:10;100744.09;;;3.08;78.85
15750;BME280;7976;52.526;13.326;2023-03-05T06:28:37;100749.25;;;3.09;78.77
15750;BME280;7976;52.526;13.326;2023-03-05T06:31:07;100752.69;;;3.11;78.92
15750;BME280;7976;52.526;13.326;2023-03-05T06:33:36;100748.38;;;3.15;78.71
15750;BME280;7976;52.526;13.326;2023-03-05T06:36:04;100746.63;;;3.20;78.49
15750;BME280;7976;52.526;13.326;2023-03-05T06:38:32;100747.38;;;3.29;78.66
15750;BME280;7976;52.526;13.326;2023-03-05T06:41:03;100739.56;;;3.37;78.67
15750;BME280;7976;52.526;13.326;2023-03-05T06:43:31;100752.44;;;3.44;78.55
15750;BME280;7976;52.526;13.326;2023-03-05T06:46:04;100752.34;;;3.52;78.24
15750;BME280;7976;52.526;13.326;2023-03-05T06:48:31;100754.06;;;3.54;78.05
15750;BME280;7976;52.526;13.326;2023-03-05T06:50:59;100740.25;;;3.55;77.93
15750;BME280;7976;52.526;13.326;2023-03-05T06:53:26;100742.84;;;3.57;77.89
15750;BME280;7976;52.526;13.326;2023-03-05T06:55:54;100738.50;;;3.60;77.66
15750;BME280;7976;52.526;13.326;2023-03-05T06:58:22;100741.97;;;3.59;77.51
15750;BME280;7976;52.526;13.326;2023-03-05T07:00:49;100749.72;;;3.59;77.32
15750;BME280;7976;52.526;13.326;2023-03-05T07:03:16;100749.66;;;3.64;77.33
15750;BME280;7976;52.526;13.326;2023-03-05T07:05:43;100748.78;;;3.68;77.09
15750;BME280;7976;52.526;13.326;2023-03-05T07:08:10;100759.97;;;3.70;76.98
15750;BME280;7976;52.526;13.326;2023-03-05T07:10:39;100754.72;;;3.76;76.76
15750;BME280;7976;52.526;13.326;2023-03-05T07:13:08;100750.41;;;3.78;76.38
15750;BME280;7976;52.526;13.326;2023-03-05T07:15:39;100752.13;;;3.79;76.09
15750;BME280;7976;52.526;13.326;2023-03-05T07:18:06;100761.59;;;3.80;75.94
15750;BME280;7976;52.526;13.326;2023-03-05T07:20:34;100754.69;;;3.79;75.92
15750;BME280;7976;52.526;13.326;2023-03-05T07:23:05;100765.03;;;3.80;75.82
15750;BME280;7976;52.526;13.326;2023-03-05T07:25:35;100761.56;;;3.83;75.56
15750;BME280;7976;52.526;13.326;2023-03-05T07:28:02;100756.41;;;3.83;75.29
15750;BME280;7976;52.526;13.326;2023-03-05T07:30:33;100760.72;;;3.81;75.09
15750;BME280;7976;52.526;13.326;2023-03-05T07:33:01;100765.06;;;3.77;74.93
15750;BME280;7976;52.526;13.326;2023-03-05T07:35:29;100763.34;;;3.78;74.55
15750;BME280;7976;52.526;13.326;2023-03-05T07:37:55;100760.78;;;3.76;74.69
15750;BME280;7976;52.526;13.326;2023-03-05T07:40:22;100759.84;;;3.80;74.73
15750;BME280;7976;52.526;13.326;2023-03-05T07:42:49;100763.25;;;3.87;74.40
15750;BME280;7976;52.526;13.326;2023-03-05T07:45:26;100759.75;;;3.93;74.11
15750;BME280;7976;52.526;13.326;2023-03-05T07:47:53;100761.41;;;3.98;73.96
15750;BME280;7976;52.526;13.326;2023-03-05T07:50:22;100757.09;;;4.00;73.94
15750;BME280;7976;52.526;13.326;2023-03-05T07:52:49;100750.13;;;4.04;73.77
15750;BME280;7976;52.526;13.326;2023-03-05T07:55:16;100763.00;;;4.11;73.62
15750;BME280;7976;52.526;13.326;2023-03-05T07:57:43;100744.84;;;4.14;73.47
15750;BME280;7976;52.526;13.326;2023-03-05T08:00:11;100746.56;;;4.14;73.00
15750;BME280;7976;52.526;13.326;2023-03-05T08:02:38;100758.66;;;4.15;72.81
15750;BME280;7976;52.526;13.326;2023-03-05T08:05:06;100753.50;;;4.12;72.86
15750;BME280;7976;52.526;13.326;2023-03-05T08:07:34;100761.31;;;4.07;73.12
15750;BME280;7976;52.526;13.326;2023-03-05T08:10:01;100749.25;;;4.06;72.52
15750;BME280;7976;52.526;13.326;2023-03-05T08:12:29;100748.34;;;4.10;72.57
15750;BME280;7976;52.526;13.326;2023-03-05T08:14:56;100756.13;;;4.10;71.99
15750;BME280;7976;52.526;13.326;2023-03-05T08:17:23;100752.59;;;4.14;72.00
15750;BME280;7976;52.526;13.326;2023-03-05T08:19:50;100742.19;;;4.20;71.71
15750;BME280;7976;52.526;13.326;2023-03-05T08:22:18;100740.41;;;4.25;71.06
15750;BME280;7976;52.526;13.326;2023-03-05T08:24:47;100746.31;;;4.36;70.85
15750;BME280;7976;52.526;13.326;2023-03-05T08:27:15;100733.28;;;4.42;70.16
15750;BME280;7976;52.526;13.326;2023-03-05T08:29:42;100728.91;;;4.46;69.96
15750;BME280;7976;52.526;13.326;2023-03-05T08:32:11;100733.00;;;4.63;69.53
15750;BME280;7976;52.526;13.326;2023-03-05T08:34:38;100722.50;;;4.72;68.94
15750;BME280;7976;52.526;13.326;2023-03-05T08:37:05;100722.44;;;4.78;68.30
15750;BME280;7976;52.526;13.326;2023-03-05T08:39:33;100722.34;;;4.84;67.98
15750;BME280;7976;52.526;13.326;2023-03-05T08:42:02;100711.97;;;4.84;67.65
15750;BME280;7976;52.526;13.326;2023-03-05T08:44:30;100718.91;;;4.82;67.06
15750;BME280;7976;52.526;13.326;2023-03-05T08:46:57;100713.09;;;4.67;66.47
15750;BME280;7976;52.526;13.326;2023-03-05T08:49:24;100708.88;;;4.60;66.48
15750;BME280;7976;52.526;13.326;2023-03-05T08:51:51;100700.97;;;4.67;66.70
15750;BME280;7976;52.526;13.326;2023-03-05T08:54:19;100703.44;;;4.78;66.32
15750;BME280;7976;52.526;13.326;2023-03-05T08:56:45;100705.84;;;4.90;66.02
15750;BME280;7976;52.526;13.326;2023-03-05T08:59:16;100698.72;;;5.02;65.81
15750;BME280;7976;52.526;13.326;2023-03-05T09:01:43;100700.47;;;5.03;64.98
15750;BME280;7976;52.526;13.326;2023-03-05T09:04:10;100697.78;;;5.08;64.76
15750;BME280;7976;52.526;13.326;2023-03-05T09:06:37;100696.00;;;5.11;64.56
15750;BME280;7976;52.526;13.326;2023-03-05T09:09:05;100700.25;;;5.17;64.40
15750;BME280;7976;52.526;13.326;2023-03-05T09:11:33;100702.00;;;5.15;64.49
15750;BME280;7976;52.526;13.326;2023-03-05T09:14:01;100699.31;;;5.20;64.00
15750;BME280;7976;52.526;13.326;2023-03-05T09:16:29;100704.44;;;5.23;63.85
15750;BME280;7976;52.526;13.326;2023-03-05T09:18:57;100700.16;;;5.22;63.24
15750;BME280;7976;52.526;13.326;2023-03-05T09:21:25;100696.81;;;5.15;63.11
15750;BME280;7976;52.526;13.326;2023-03-05T09:23:52;100689.94;;;5.14;62.47
15750;BME280;7976;52.526;13.326;2023-03-05T09:26:24;100685.53;;;5.18;61.69
15750;BME280;7976;52.526;13.326;2023-03-05T09:28:52;100687.25;;;5.19;61.23
15750;BME280;7976;52.526;13.326;2023-03-05T09:31:19;100687.19;;;5.22;61.19
15750;BME280;7976;52.526;13.326;2023-03-05T09:33:48;100681.03;;;5.29;61.05
15750;BME280;7976;52.526;13.326;2023-03-05T09:36:21;100685.38;;;5.27;61.00
15750;BME280;7976;52.526;13.326;2023-03-05T09:38:48;100686.28;;;5.26;60.96
15750;BME280;7976;52.526;13.326;2023-03-05T09:41:25;100683.63;;;5.29;61.11
15750;BME280;7976;52.526;13.326;2023-03-05T09:44:10;100680.00;;;5.39;61.43
15750;BME280;7976;52.526;13.326;2023-03-05T09:46:53;100676.41;;;5.46;61.21
15750;BME280;7976;52.526;13.326;2023-03-05T09:49:32;100672.84;;;5.51;61.10
15750;BME280;7976;52.526;13.326;2023-03-05T09:52:17;100675.44;;;5.51;60.49
15750;BME280;7976;52.526;13.326;2023-03-05T09:54:51;100672.94;;;5.47;60.65
15750;BME280;7976;52.526;13.326;2023-03-05T09:57:24;100679.09;;;5.40;60.37
15750;BME280;7976;52.526;13.326;2023-03-05T09:59:58;100668.78;;;5.37;60.64
15750;BME280;7976;52.526;13.326;2023-03-05T10:02:47;100672.25;;;5.37;60.74
15750;BME280;7976;52.526;13.326;2023-03-05T10:05:26;100669.63;;;5.39;60.40
15750;BME280;7976;52.526;13.326;2023-03-05T10:08:02;100677.47;;;5.33;60.38
15750;BME280;7976;52.526;13.326;2023-03-05T10:10:41;100672.50;;;5.22;60.36
15750;BME280;7976;52.526;13.326;2023-03-05T10:13:20;100660.41;;;5.21;60.66
15750;BME280;7976;52.526;13.326;2023-03-05T10:16:04;100656.13;;;5.19;60.52
15750;BME280;7976;52.526;13.326;2023-03-05T10:18:39;100660.38;;;5.24;60.40
15750;BME280;7976;52.526;13.326;2023-03-05T10:21:13;100656.03;;;5.23;60.81
15750;BME280;7976;52.526;13.326;2023-03-05T10:24:02;100656.06;;;5.22;60.57
15750;BME280;7976;52.526;13.326;2023-03-05T10:26:55;100664.00;;;5.12;60.49
15750;BME280;7976;52.526;13.326;2023-03-05T10:29:47;100653.84;;;4.99;60.74
15750;BME280;7976;52.526;13.326;2023-03-05T10:32:33;100665.19;;;4.93;61.04
15750;BME280;7976;52.526;13.326;2023-03-05T10:35:36;100668.06;;;4.75;62.79
15750;BME280;7976;52.526;13.326;2023-03-05T10:38:39;100663.22;;;4.51;64.38
15750;BME280;7976;52.526;13.326;2023-03-05T10:41:24;100651.38;;;4.35;66.07
15750;BME280;7976;52.526;13.326;2023-03-05T10:44:00;100650.50;;;4.36;67.54
15750;BME280;7976;52.526;13.326;2023-03-05T10:46:35;100649.66;;;4.33;68.15
15750;BME280;7976;52.526;13.326;2023-03-05T10:49:14;100640.25;;;4.27;68.77
15750;BME280;7976;52.526;13.326;2023-03-05T10:51:51;100631.69;;;4.22;69.28
15750;BME280;7976;52.526;13.326;2023-03-05T10:54:27;100642.81;;;4.27;69.92
15750;BME280;7976;52.526;13.326;2023-03-05T10:57:17;100634.09;;;4.36;69.59
15750;BME280;7976;52.526;13.326;2023-03-05T10:59:49;100626.28;;;4.40;69.20
15750;BME280;7976;52.526;13.326;2023-03-05T11:02:18;100638.22;;;4.47;68.89
15750;BME280;7976;52.526;13.326;2023-03-05T11:04:46;100635.63;;;4.49;69.09
15750;BME280;7976;52.526;13.326;2023-03-05T11:07:34;100639.03;;;4.51;68.73
15750;BME280;7976;52.526;13.326;2023-03-05T11:10:18;100638.22;;;4.50;68.68
15750;BME280;7976;52.526;13.326;2023-03-05T11:12:46;100638.22;;;4.49;68.61
15750;BME280;7976;52.526;13.326;2023-03-05T11:15:28;100632.94;;;4.56;69.06
15750;BME280;7976;52.526;13.326;2023-03-05T11:18:19;100625.75;;;4.73;69.09
15750;BME280;7976;52.526;13.326;2023-03-05T11:20:50;100620.44;;;4.81;68.80
15750;BME280;7976;52.526;13.326;2023-03-05T11:23:18;100616.00;;;4.90;68.65
15750;BME280;7976;52.526;13.326;2023-03-05T11:25:59;100621.03;;;4.98;68.55
15750;BME280;7976;52.526;13.326;2023-03-05T11:28:32;100626.16;;;5.01;68.43
15750;BME280;7976;52.526;13.326;2023-03-05T11:31:11;100618.44;;;4.98;68.13
15750;BME280;7976;52.526;13.326;2023-03-05T11:33:57;100608.13;;;4.95;67.72
15750;BME280;7976;52.526;13.326;2023-03-05T11:36:26;100609.78;;;5.00;67.54
15750;BME280;7976;52.526;13.326;2023-03-05T11:39:02;100605.31;;;5.08;67.04
15750;BME280;7976;52.526;13.326;2023-03-05T11:41:40;100609.28;;;5.28;66.85
15750;BME280;7976;52.526;13.326;2023-03-05T11:44:13;100602.13;;;5.40;66.66
15750;BME280;7976;52.526;13.326;2023-03-05T11:46:45;100597.78;;;5.42;66.08
15750;BME280;7976;52.526;13.326;2023-03-05T11:49:18;100595.31;;;5.35;65.82
15750;BME280;7976;52.526;13.326;2023-03-05T11:51:57;100592.66;;;5.38;65.58
15750;BME280;7976;52.526;13.326;2023-03-05T11:54:35;100588.28;;;5.40;65.59
15750;BME280;7976;52.526;13.326;2023-03-05T11:57:11;100605.59;;;5.41;65.54
15750;BME280;7976;52.526;13.326;2023-03-05T11:59:40;100599.50;;;5.42;65.25
15750;BME280;7976;52.526;13.326;2023-03-05T12:02:18;100597.03;;;5.36;65.18
15750;BME280;7976;52.526;13.326;2023-03-05T12:04:47;100588.72;;;5.19;65.08
15750;BME280;7976;52.526;13.326;2023-03-05T12:07:21;100594.16;;;5.03;65.91
15750;BME280;7976;52.526;13.326;2023-03-05T12:09:52;100572.72;;;4.92;66.56
15750;BME280;7976;52.526;13.326;2023-03-05T12:12:40;100570.69;;;5.09;67.54
15750;BME280;7976;52.526;13.326;2023-03-05T12:15:33;100566.75;;;5.36;67.32
15750;BME280;7976;52.526;13.326;2023-03-05T12:18:15;100562.06;;;5.55;66.89
15750;BME280;7976;52.526;13.326;2023-03-05T12:20:56;100556.69;;;5.64;66.52
15750;BME280;7976;52.526;13.326;2023-03-05T12:23:26;100557.25;;;5.79;65.80
15750;BME280;7976;52.526;13.326;2023-03-05T12:25:56;100554.44;;;5.90;64.48
15750;BME280;7976;52.526;13.326;2023-03-05T12:28:55;100550.06;;;5.92;63.84
15750;BME280;7976;52.526;13.326;2023-03-05T12:31:34;100553.47;;;5.95;63.49
15750;BME280;7976;52.526;13.326;2023-03-05T12:34:45;100539.34;;;6.07;62.89
15750;BME280;7976;52.526;13.326;2023-03-05T12:40:18;100527.31;;;6.04;61.87
15750;BME280;7976;52.526;13.326;2023-03-05T12:42:51;100538.59;;;6.02;61.75
15750;BME280;7976;52.526;13.326;2023-03-05T12:45:41;100536.31;;;5.88;61.28
15750;BME280;7976;52.526;13.326;2023-03-05T12:48:41;100527.94;;;5.73;60.79
15750;BME280;7976;52.526;13.326;2023-03-05T12:51:26;100528.16;;;5.64;60.46
15750;BME280;7976;52.526;13.326;2023-03-05T12:53:55;100532.50;;;5.62;59.74
15750;BME280;7976;52.526;13.326;2023-03-05T12:56:28;100521.34;;;5.58;59.84
15750;BME280;7976;52.526;13.326;2023-03-05T12:58:59;100521.31;;;5.60;59.56
15750;BME280;7976;52.526;13.326;2023-03-05T13:01:39;100526.47;;;5.61;60.03
15750;BME280;7976;52.526;13.326;2023-03-05T13:04:16;100527.16;;;5.71;60.25
15750;BME280;7976;52.526;13.326;2023-03-05T13:06:56;100532.25;;;5.74;61.10
15750;BME280;7976;52.526;13.326;2023-03-05T13:09:27;100539.22;;;5.72;61.83
15750;BME280;7976;52.526;13.326;2023-03-05T13:11:57;100523.78;;;5.66;62.10
15750;BME280;7976;52.526;13.326;2023-03-05T13:14:34;100513.44;;;5.63;62.65
15750;BME280;7976;52.526;13.326;2023-03-05T13:17:26;100521.16;;;5.67;63.11
15750;BME280;7976;52.526;13.326;2023-03-05T13:19:54;100523.72;;;5.69;63.47
15750;BME280;7976;52.526;13.326;2023-03-05T13:22:21;100515.88;;;5.72;63.67